createdAt,value
2023-02-13T00:00:50.439Z,78.90
2023-02-13T00:03:18.340Z,78.90
2023-02-13T00:05:45.972Z,78.90
2023-02-13T00:08:13.435Z,78.80
2023-02-13T00:10:41.125Z,78.70
2023-02-13T00:13:08.581Z,78.70
2023-02-13T00:15:36.353Z,78.70
2023-02-13T00:18:04.332Z,78.80
2023-02-13T00:20:31.842Z,78.80
2023-02-13T00:22:59.928Z,78.80
2023-02-13T00:25:27.913Z,78.70
2023-02-13T00:27:55.278Z,78.70
2023-02-13T00:30:23.091Z,78.60
2023-02-13T00:32:51.969Z,78.60
2023-02-13T00:35:20.188Z,78.60
2023-02-13T00:37:48.180Z,78.50
2023-02-13T00:40:15.656Z,78.60
2023-02-13T00:42:42.863Z,79.40
2023-02-13T00:45:10.481Z,78.70
2023-02-13T00:47:38.232Z,78.60
2023-02-13T00:50:06.095Z,78.60
2023-02-13T00:52:33.622Z,78.60
2023-02-13T00:55:01.069Z,78.50
2023-02-13T00:57:31.722Z,78.60
2023-02-13T00:59:59.209Z,78.50
2023-02-13T01:02:26.915Z,78.50
2023-02-13T01:04:55.357Z,78.60
2023-02-13T01:07:22.862Z,78.60
2023-02-13T01:09:50.134Z,78.60
2023-02-13T01:12:17.691Z,78.70
2023-02-13T01:14:45.033Z,78.80
2023-02-13T01:17:12.564Z,79.00
2023-02-13T01:19:41.615Z,79.00
2023-02-13T01:22:09.509Z,79.10
2023-02-13T01:24:36.938Z,79.10
2023-02-13T01:27:04.521Z,79.10
2023-02-13T01:29:31.866Z,78.90
2023-02-13T01:31:59.651Z,78.80
2023-02-13T01:34:29.214Z,79.40
2023-02-13T01:36:56.613Z,78.70
2023-02-13T01:39:25.995Z,78.70
2023-02-13T01:41:53.442Z,78.80
2023-02-13T01:44:53.511Z,78.80
2023-02-13T01:47:27.750Z,78.80
2023-02-13T01:50:25.607Z,78.80
2023-02-13T01:53:12.204Z,78.80
2023-02-13T01:55:48.081Z,78.90
2023-02-13T01:58:18.986Z,78.80
2023-02-13T02:00:50.442Z,78.70
2023-02-13T02:03:28.085Z,78.60
2023-02-13T02:06:01.787Z,78.60
2023-02-13T02:08:30.534Z,78.60
2023-02-13T02:11:07.217Z,78.60
2023-02-13T02:13:34.601Z,78.70
2023-02-13T02:16:07.645Z,78.70
2023-02-13T02:18:35.024Z,78.70
2023-02-13T02:21:40.116Z,78.50
2023-02-13T02:24:38.574Z,78.50
2023-02-13T02:27:15.296Z,78.50
2023-02-13T02:30:00.562Z,78.40
2023-02-13T02:33:00.513Z,78.40
2023-02-13T02:35:40.026Z,78.40
2023-02-13T02:38:28.221Z,78.50
2023-02-13T02:41:42.178Z,78.50
2023-02-13T02:44:37.572Z,78.60
2023-02-13T02:47:42.558Z,78.60
2023-02-13T02:50:16.880Z,78.50
2023-02-13T02:52:57.206Z,78.60
2023-02-13T02:55:51.396Z,78.50
2023-02-13T02:59:10.590Z,78.30
2023-02-13T03:01:57.856Z,78.30
2023-02-13T03:04:47.210Z,78.20
2023-02-13T03:07:17.888Z,78.20
2023-02-13T03:10:11.081Z,78.20
2023-02-13T03:13:31.731Z,78.40
2023-02-13T03:16:19.686Z,78.30
2023-02-13T03:19:10.610Z,78.50
2023-02-13T03:22:02.370Z,78.70
2023-02-13T03:24:50.302Z,78.80
2023-02-13T03:28:00.193Z,78.90
2023-02-13T03:30:44.385Z,79.80
2023-02-13T03:33:26.987Z,79.10
2023-02-13T03:36:26.323Z,79.10
2023-02-13T03:39:20.197Z,79.10
2023-02-13T03:41:59.977Z,79.10
2023-02-13T03:45:22.755Z,79.10
2023-02-13T03:47:53.937Z,79.10
2023-02-13T03:50:22.481Z,79.00
2023-02-13T03:53:03.904Z,79.10
2023-02-13T03:55:57.451Z,79.00
2023-02-13T03:58:49.965Z,79.00
2023-02-13T04:01:20.077Z,78.90
2023-02-13T04:04:15.746Z,78.90
2023-02-13T04:06:48.836Z,79.00
2023-02-13T04:09:17.031Z,78.90
2023-02-13T04:12:01.223Z,78.90
2023-02-13T04:14:37.728Z,78.90
2023-02-13T04:17:14.003Z,79.00
2023-02-13T04:19:41.545Z,79.00
2023-02-13T04:22:11.986Z,79.00
2023-02-13T04:24:39.430Z,78.80
2023-02-13T04:27:06.796Z,78.70
2023-02-13T04:29:34.071Z,78.80
2023-02-13T04:32:01.476Z,78.90
2023-02-13T04:34:28.773Z,78.90
2023-02-13T04:36:56.288Z,78.90
2023-02-13T04:39:23.706Z,78.90
2023-02-13T04:41:51.266Z,79.00
2023-02-13T04:44:18.858Z,79.00
2023-02-13T04:46:46.306Z,79.10
2023-02-13T04:49:13.691Z,79.00
2023-02-13T04:51:41.238Z,79.00
2023-02-13T04:54:08.678Z,78.80
2023-02-13T04:56:36.206Z,79.10
2023-02-13T04:59:03.452Z,78.90
2023-02-13T05:01:30.994Z,79.00
2023-02-13T05:03:58.579Z,79.10
2023-02-13T05:06:26.081Z,79.10
2023-02-13T05:08:53.646Z,79.00
2023-02-13T05:11:21.100Z,79.10
2023-02-13T05:13:48.453Z,79.00
2023-02-13T05:16:15.767Z,79.00
2023-02-13T05:18:43.033Z,79.00
2023-02-13T05:21:29.494Z,79.00
2023-02-13T05:23:57.137Z,79.00
2023-02-13T05:26:24.810Z,79.00
2023-02-13T05:29:11.057Z,79.00
2023-02-13T05:31:38.816Z,79.00
2023-02-13T05:34:06.569Z,79.00
2023-02-13T05:36:34.148Z,79.00
2023-02-13T05:39:01.738Z,78.90
2023-02-13T05:41:29.147Z,78.90
2023-02-13T05:43:56.740Z,78.80
2023-02-13T05:46:24.377Z,78.70
2023-02-13T05:48:52.806Z,78.50
2023-02-13T05:51:21.359Z,78.40
2023-02-13T05:53:48.788Z,78.30
2023-02-13T05:56:16.405Z,78.10
2023-02-13T05:58:45.231Z,78.20
2023-02-13T06:01:12.892Z,78.20
2023-02-13T06:03:40.659Z,78.30
2023-02-13T06:06:08.862Z,78.40
2023-02-13T06:08:36.848Z,78.40
2023-02-13T06:11:04.956Z,78.50
2023-02-13T06:13:32.563Z,78.50
2023-02-13T06:16:00.252Z,78.50
2023-02-13T06:18:28.221Z,78.70
2023-02-13T06:20:56.002Z,78.50
2023-02-13T06:23:23.794Z,78.40
2023-02-13T06:25:51.599Z,79.30
2023-02-13T06:28:19.253Z,78.60
2023-02-13T06:30:47.839Z,78.60
2023-02-13T06:33:15.704Z,78.60
2023-02-13T06:35:43.560Z,78.70
2023-02-13T06:38:11.254Z,78.50
2023-02-13T06:40:39.053Z,78.30
2023-02-13T06:43:06.652Z,78.00
2023-02-13T06:45:34.088Z,78.00
2023-02-13T06:48:01.646Z,78.00
2023-02-13T06:50:29.305Z,78.00
2023-02-13T06:52:56.942Z,77.90
2023-02-13T06:55:24.328Z,78.00
2023-02-13T06:57:51.901Z,77.90
2023-02-13T07:00:20.486Z,78.00
2023-02-13T07:02:48.357Z,78.20
2023-02-13T07:05:16.261Z,78.30
2023-02-13T07:07:44.311Z,78.30
2023-02-13T07:10:13.878Z,78.30
2023-02-13T07:12:41.359Z,78.30
2023-02-13T07:15:09.510Z,78.10
2023-02-13T07:17:37.196Z,78.20
2023-02-13T07:20:06.270Z,78.20
2023-02-13T07:22:33.875Z,78.20
2023-02-13T07:25:01.580Z,78.30
2023-02-13T07:27:29.629Z,78.30
2023-02-13T07:29:57.967Z,78.20
2023-02-13T07:32:26.132Z,78.10
2023-02-13T07:35:01.664Z,78.10
2023-02-13T07:37:31.753Z,78.20
2023-02-13T07:39:59.475Z,78.30
2023-02-13T07:42:26.947Z,78.40
2023-02-13T07:44:54.332Z,78.40
2023-02-13T07:47:21.974Z,78.20
2023-02-13T07:49:49.351Z,78.10
2023-02-13T07:52:16.933Z,78.20
2023-02-13T07:54:47.739Z,78.30
2023-02-13T07:57:16.836Z,78.10
2023-02-13T07:59:44.335Z,78.10
2023-02-13T08:02:16.081Z,78.10
2023-02-13T08:04:46.385Z,78.10
2023-02-13T08:07:15.683Z,78.00
2023-02-13T08:10:04.060Z,77.80
2023-02-13T08:12:34.784Z,77.90
2023-02-13T08:15:02.907Z,78.00
2023-02-13T08:17:30.310Z,78.00
2023-02-13T08:19:58.136Z,78.00
2023-02-13T08:22:25.850Z,77.80
2023-02-13T08:24:53.547Z,77.50
2023-02-13T08:27:21.065Z,77.30
2023-02-13T08:29:50.036Z,77.10
2023-02-13T08:32:18.216Z,77.00
2023-02-13T08:34:45.802Z,77.00
2023-02-13T08:37:13.556Z,77.00
2023-02-13T08:39:41.174Z,77.30
2023-02-13T08:42:08.586Z,77.60
2023-02-13T08:44:36.813Z,77.70
2023-02-13T08:47:04.397Z,77.70
2023-02-13T08:49:31.836Z,77.50
2023-02-13T08:52:00.568Z,77.20
2023-02-13T08:54:28.534Z,77.20
2023-02-13T08:56:57.873Z,77.20
2023-02-13T08:59:26.105Z,77.20
2023-02-13T09:01:53.441Z,77.20
2023-02-13T09:04:20.866Z,77.00
2023-02-13T09:06:48.505Z,77.00
2023-02-13T09:09:16.383Z,77.00
2023-02-13T09:11:43.919Z,77.10
2023-02-13T09:14:11.551Z,77.00
2023-02-13T09:16:38.943Z,76.80
2023-02-13T09:19:07.149Z,76.80
2023-02-13T09:21:35.304Z,76.90
2023-02-13T09:24:02.849Z,76.70
2023-02-13T09:26:30.483Z,76.80
2023-02-13T09:28:58.164Z,76.50
2023-02-13T09:31:29.102Z,76.10
2023-02-13T09:33:57.017Z,75.90
2023-02-13T09:36:25.516Z,75.70
2023-02-13T09:38:55.624Z,75.80
2023-02-13T09:41:32.630Z,75.60
2023-02-13T09:44:34.218Z,75.30
2023-02-13T09:47:25.084Z,75.20
2023-02-13T09:49:57.061Z,75.00
2023-02-13T09:52:28.430Z,75.10
2023-02-13T09:54:55.913Z,75.30
2023-02-13T09:57:35.251Z,75.50
2023-02-13T10:00:26.268Z,75.70
2023-02-13T10:02:57.016Z,75.60
2023-02-13T10:05:43.508Z,75.70
2023-02-13T10:08:34.405Z,75.70
2023-02-13T10:11:26.642Z,75.30
2023-02-13T10:14:03.167Z,75.20
2023-02-13T10:16:39.394Z,74.60
2023-02-13T10:19:25.887Z,74.70
2023-02-13T10:21:58.975Z,74.60
2023-02-13T10:24:44.183Z,74.70
2023-02-13T10:27:22.674Z,74.60
2023-02-13T10:30:05.180Z,74.70
2023-02-13T10:32:43.603Z,74.50
2023-02-13T10:35:30.735Z,74.60
2023-02-13T10:38:01.651Z,74.80
2023-02-13T10:40:37.322Z,74.70
2023-02-13T10:43:09.670Z,74.50
2023-02-13T10:46:00.815Z,74.50
2023-02-13T10:49:09.603Z,74.60
2023-02-13T10:51:46.213Z,74.20
2023-02-13T10:54:24.828Z,74.20
2023-02-13T10:56:59.791Z,74.60
2023-02-13T10:59:44.599Z,74.60
2023-02-13T11:02:25.813Z,74.50
2023-02-13T11:04:59.211Z,74.60
2023-02-13T11:07:28.558Z,74.70
2023-02-13T11:10:00.502Z,74.70
2023-02-13T11:12:32.234Z,74.80
2023-02-13T11:15:05.664Z,74.90
2023-02-13T11:17:41.361Z,75.20
2023-02-13T11:20:32.080Z,75.40
2023-02-13T11:23:32.314Z,74.60
2023-02-13T11:26:01.722Z,74.60
2023-02-13T11:28:32.568Z,74.60
2023-02-13T11:31:13.183Z,74.40
2023-02-13T11:33:41.875Z,73.90
2023-02-13T11:36:16.129Z,74.00
2023-02-13T11:38:44.005Z,73.50
2023-02-13T11:41:17.865Z,73.40
2023-02-13T11:43:53.083Z,73.00
2023-02-13T11:46:26.471Z,73.30
2023-02-13T11:49:02.918Z,73.30
2023-02-13T11:51:53.091Z,73.40
2023-02-13T11:54:38.501Z,73.30
2023-02-13T11:57:42.570Z,73.70
2023-02-13T12:00:32.318Z,73.80
2023-02-13T12:03:00.082Z,74.10
2023-02-13T12:05:28.220Z,74.50
2023-02-13T12:07:59.832Z,74.50
2023-02-13T12:10:30.140Z,74.40
2023-02-13T12:12:59.174Z,74.40
2023-02-13T12:15:37.065Z,74.50
2023-02-13T12:18:21.828Z,74.20
2023-02-13T12:21:01.486Z,74.90
2023-02-13T12:24:16.383Z,74.00
2023-02-13T12:27:15.885Z,74.00
2023-02-13T12:29:49.546Z,73.70
2023-02-13T12:32:37.641Z,73.50
2023-02-13T12:35:27.303Z,73.80
2023-02-13T12:37:59.913Z,73.80
2023-02-13T12:41:04.203Z,73.90
2023-02-13T12:44:04.424Z,73.80
2023-02-13T12:47:21.534Z,73.50
2023-02-13T12:50:46.182Z,72.80
2023-02-13T12:53:24.900Z,72.70
2023-02-13T12:56:13.073Z,72.90
2023-02-13T12:59:00.333Z,73.20
2023-02-13T13:01:39.493Z,73.60
2023-02-13T13:04:47.725Z,73.10
2023-02-13T13:25:49.074Z,73.70
2023-02-13T13:28:23.112Z,73.50
2023-02-13T13:30:51.278Z,73.30
2023-02-13T13:33:24.760Z,73.00
2023-02-13T13:36:08.262Z,72.90
2023-02-13T13:39:00.673Z,72.90
2023-02-13T13:41:54.821Z,72.60
2023-02-13T13:44:49.954Z,72.50
2023-02-13T13:47:48.978Z,72.60
2023-02-13T13:50:22.314Z,72.90
2023-02-13T13:53:11.556Z,72.80
2023-02-13T13:55:51.538Z,72.60
2023-02-13T13:58:25.016Z,72.50
2023-02-13T14:01:14.400Z,72.40
2023-02-13T14:03:46.729Z,72.20
2023-02-13T14:06:17.141Z,72.30
2023-02-13T14:08:44.448Z,72.40
2023-02-13T14:11:32.473Z,72.20
2023-02-13T14:14:00.510Z,72.10
2023-02-13T14:16:43.611Z,72.20
2023-02-13T14:19:45.498Z,71.80
2023-02-13T14:22:18.914Z,72.10
2023-02-13T14:24:54.813Z,71.90
2023-02-13T14:27:39.218Z,71.60
2023-02-13T14:30:26.951Z,71.40
2023-02-13T14:32:55.251Z,71.10
2023-02-13T14:35:33.278Z,70.90
2023-02-13T14:38:03.513Z,70.80
2023-02-13T14:40:46.951Z,70.70
2023-02-13T14:43:29.952Z,70.70
2023-02-13T14:46:16.233Z,70.50
2023-02-13T14:48:51.253Z,69.90
2023-02-13T14:51:30.586Z,69.70
2023-02-13T14:54:28.382Z,69.40
2023-02-13T14:57:06.502Z,69.60
2023-02-13T14:59:38.461Z,69.90
2023-02-13T15:02:23.101Z,69.90
2023-02-13T15:05:14.373Z,69.90
2023-02-13T15:08:06.709Z,70.20
2023-02-13T15:10:49.453Z,70.50
2023-02-13T15:13:26.480Z,70.60
2023-02-13T15:16:11.673Z,70.70
2023-02-13T15:18:47.551Z,70.70
2023-02-13T15:21:17.132Z,70.90
2023-02-13T15:23:48.913Z,71.00
2023-02-13T15:26:23.797Z,71.10
2023-02-13T15:29:03.738Z,71.20
2023-02-13T15:31:33.770Z,71.40
2023-02-13T15:34:01.404Z,71.40
2023-02-13T15:36:36.230Z,71.40
2023-02-13T15:39:09.504Z,71.50
2023-02-13T15:41:44.807Z,71.50
2023-02-13T15:44:27.455Z,71.50
2023-02-13T15:47:01.907Z,71.50
2023-02-13T15:49:37.230Z,71.60
2023-02-13T15:52:16.517Z,71.70
2023-02-13T15:54:54.915Z,71.80
2023-02-13T15:57:23.622Z,71.80
2023-02-13T15:59:52.929Z,72.30
2023-02-13T16:02:33.677Z,72.00
2023-02-13T16:05:02.245Z,72.00
2023-02-13T16:07:30.601Z,72.00
2023-02-13T16:10:27.462Z,72.10
2023-02-13T16:12:56.898Z,72.20
2023-02-13T16:15:28.370Z,72.10
2023-02-13T16:17:56.553Z,72.30
2023-02-13T16:20:34.273Z,72.20
2023-02-13T16:23:06.975Z,72.30
2023-02-13T16:25:38.302Z,72.40
2023-02-13T16:28:18.802Z,72.50
2023-02-13T16:31:13.829Z,72.60
2023-02-13T16:33:42.500Z,72.60
2023-02-13T16:36:09.912Z,72.50
2023-02-13T16:38:40.025Z,72.60
2023-02-13T16:41:31.129Z,72.80
2023-02-13T16:44:06.268Z,73.00
2023-02-13T16:46:41.114Z,73.00
2023-02-13T16:49:09.560Z,73.10
2023-02-13T16:51:44.892Z,73.30
2023-02-13T16:54:30.950Z,73.50
2023-02-13T16:57:24.536Z,73.70
2023-02-13T17:00:07.478Z,73.50
2023-02-13T17:02:37.233Z,73.60
2023-02-13T17:05:07.562Z,73.30
2023-02-13T17:07:39.810Z,73.00
2023-02-13T17:10:33.545Z,72.70
2023-02-13T17:13:23.503Z,72.60
2023-02-13T17:15:52.058Z,72.80
2023-02-13T17:18:19.712Z,73.20
2023-02-13T17:20:47.491Z,73.40
2023-02-13T17:23:18.047Z,73.60
2023-02-13T17:25:49.509Z,73.60
2023-02-13T17:28:22.848Z,73.80
2023-02-13T17:30:52.077Z,73.80
2023-02-13T17:33:34.620Z,73.90
2023-02-13T17:36:02.001Z,74.10
2023-02-13T17:38:29.439Z,74.10
2023-02-13T17:40:57.205Z,74.10
2023-02-13T17:43:26.797Z,74.00
2023-02-13T17:45:54.135Z,74.00
2023-02-13T17:48:21.359Z,74.00
2023-02-13T17:50:50.430Z,74.00
2023-02-13T17:53:25.367Z,74.00
2023-02-13T17:55:52.994Z,74.10
2023-02-13T17:58:20.443Z,73.90
2023-02-13T18:00:47.859Z,73.60
2023-02-13T18:03:15.515Z,73.60
2023-02-13T18:05:42.916Z,73.80
2023-02-13T18:08:10.190Z,74.20
2023-02-13T18:10:39.433Z,74.60
2023-02-13T18:13:06.852Z,74.80
2023-02-13T18:15:42.870Z,74.90
2023-02-13T18:18:11.831Z,74.90
2023-02-13T18:20:39.201Z,74.90
2023-02-13T18:23:07.056Z,74.80
2023-02-13T18:25:35.137Z,74.80
2023-02-13T18:28:02.547Z,75.30
2023-02-13T18:30:29.869Z,75.00
2023-02-13T18:32:59.135Z,74.90
2023-02-13T18:35:26.761Z,74.90
2023-02-13T18:37:54.112Z,74.90
2023-02-13T18:40:21.605Z,74.80
2023-02-13T18:42:51.072Z,74.60
2023-02-13T18:45:19.089Z,74.50
2023-02-13T18:47:46.474Z,74.70
2023-02-13T18:50:14.015Z,75.00
2023-02-13T18:52:41.504Z,75.30
2023-02-13T18:55:09.326Z,75.70
2023-02-13T18:57:36.841Z,75.80
2023-02-13T19:00:05.737Z,75.90
2023-02-13T19:02:33.536Z,76.00
2023-02-13T19:05:01.399Z,76.10
2023-02-13T19:07:28.924Z,76.30
2023-02-13T19:09:56.423Z,76.30
2023-02-13T19:12:23.910Z,76.20
2023-02-13T19:14:51.297Z,76.20
2023-02-13T19:17:18.658Z,76.10
2023-02-13T19:19:49.085Z,76.30
2023-02-13T19:22:16.591Z,76.40
2023-02-13T19:24:44.182Z,76.50
2023-02-13T19:27:11.628Z,76.30
2023-02-13T19:29:39.269Z,76.10
2023-02-13T19:32:06.686Z,76.00
2023-02-13T19:34:34.601Z,75.90
2023-02-13T19:37:02.008Z,76.00
2023-02-13T19:39:29.524Z,76.10
2023-02-13T19:41:57.346Z,76.30
2023-02-13T19:44:24.828Z,76.50
2023-02-13T19:46:52.419Z,76.70
2023-02-13T19:49:22.215Z,76.70
2023-02-13T19:51:49.737Z,76.70
2023-02-13T19:54:17.443Z,76.80
2023-02-13T19:56:44.990Z,76.80
2023-02-13T19:59:13.382Z,76.90
2023-02-13T20:01:42.672Z,77.10
2023-02-13T20:04:11.192Z,77.20
2023-02-13T20:06:38.892Z,77.20
2023-02-13T20:09:12.813Z,77.10
2023-02-13T20:11:41.437Z,77.00
2023-02-13T20:14:14.474Z,76.80
2023-02-13T20:16:45.397Z,77.00
2023-02-13T20:19:13.874Z,77.00
2023-02-13T20:21:42.476Z,76.90
2023-02-13T20:24:11.224Z,76.80
2023-02-13T20:26:39.492Z,76.80
2023-02-13T20:29:07.412Z,76.90
2023-02-13T20:31:35.583Z,77.00
2023-02-13T20:34:05.364Z,77.10
2023-02-13T20:36:33.519Z,77.20
2023-02-13T20:39:04.034Z,77.20
2023-02-13T20:41:33.730Z,77.20
2023-02-13T20:44:08.291Z,77.10
2023-02-13T20:46:38.833Z,77.10
2023-02-13T20:49:06.593Z,77.20
2023-02-13T20:51:34.606Z,77.20
2023-02-13T20:54:02.365Z,77.00
2023-02-13T20:56:29.862Z,77.00
2023-02-13T20:58:59.785Z,76.90
2023-02-13T21:01:29.654Z,76.80
2023-02-13T21:03:57.592Z,76.90
2023-02-13T21:06:29.741Z,76.90
2023-02-13T21:08:57.436Z,76.90
2023-02-13T21:11:25.669Z,76.90
2023-02-13T21:13:53.035Z,77.00
2023-02-13T21:16:23.223Z,77.20
2023-02-13T21:18:53.469Z,77.40
2023-02-13T21:21:22.496Z,77.40
2023-02-13T21:23:53.461Z,77.70
2023-02-13T21:26:21.718Z,77.90
2023-02-13T21:28:49.595Z,77.80
2023-02-13T21:31:24.197Z,77.80
2023-02-13T21:33:52.420Z,77.60
2023-02-13T21:36:20.003Z,78.30
2023-02-13T21:38:47.390Z,77.50
2023-02-13T21:41:17.090Z,77.40
2023-02-13T21:43:47.895Z,77.40
2023-02-13T21:46:32.356Z,77.30
2023-02-13T21:49:04.897Z,77.40
2023-02-13T21:51:34.330Z,77.20
2023-02-13T21:54:02.765Z,77.30
2023-02-13T21:56:33.223Z,77.20
2023-02-13T21:59:00.585Z,77.20
2023-02-13T22:01:33.336Z,77.10
2023-02-13T22:04:03.350Z,77.10
2023-02-13T22:06:33.575Z,78.00
2023-02-13T22:09:06.914Z,77.10
2023-02-13T22:11:35.048Z,77.00
2023-02-13T22:14:04.312Z,76.90
2023-02-13T22:16:33.730Z,76.70
2023-02-13T22:19:01.858Z,76.80
2023-02-13T22:21:31.267Z,76.70
2023-02-13T22:23:59.541Z,76.70
2023-02-13T22:26:35.275Z,76.70
2023-02-13T22:29:05.913Z,76.90
2023-02-13T22:31:34.757Z,76.90
2023-02-13T22:34:05.056Z,76.80
2023-02-13T22:36:35.326Z,76.70
2023-02-13T22:39:02.601Z,76.80
2023-02-13T22:41:30.086Z,76.80
2023-02-13T22:43:57.931Z,76.80
2023-02-13T22:46:28.129Z,76.90
2023-02-13T22:48:55.760Z,76.80
2023-02-13T22:51:29.383Z,76.80
2023-02-13T22:53:58.308Z,76.70
2023-02-13T22:56:27.103Z,76.90
2023-02-13T22:58:54.496Z,76.90
2023-02-13T23:01:24.190Z,76.90
2023-02-13T23:03:52.109Z,76.80
2023-02-13T23:06:20.019Z,76.80
2023-02-13T23:08:52.147Z,76.90
2023-02-13T23:11:39.721Z,77.00
2023-02-13T23:14:07.058Z,76.90
2023-02-13T23:16:52.931Z,77.00
2023-02-13T23:19:21.523Z,77.00
2023-02-13T23:21:49.080Z,77.00
2023-02-13T23:24:17.113Z,77.00
2023-02-13T23:26:44.622Z,77.10
2023-02-13T23:29:11.879Z,77.20
2023-02-13T23:31:39.370Z,77.30
2023-02-13T23:34:06.722Z,77.20
2023-02-13T23:36:34.720Z,77.20
2023-02-13T23:39:02.027Z,77.10
2023-02-13T23:41:29.346Z,77.10
2023-02-13T23:43:56.790Z,77.00
2023-02-13T23:46:24.176Z,77.00
2023-02-13T23:48:51.580Z,77.00
2023-02-13T23:51:18.948Z,77.20
2023-02-13T23:53:46.685Z,77.20
2023-02-13T23:56:14.310Z,77.10
2023-02-13T23:58:41.623Z,76.90
